createdAt,value
2023-03-14T00:00:33.246Z,0.50
2023-03-14T00:03:01.747Z,1.10
2023-03-14T00:05:29.916Z,0.50
2023-03-14T00:07:58.049Z,0.70
2023-03-14T00:10:27.503Z,0.60
2023-03-14T00:12:55.759Z,0.50
2023-03-14T00:15:23.992Z,0.50
2023-03-14T00:17:52.242Z,0.60
2023-03-14T00:20:20.632Z,0.60
2023-03-14T00:22:48.888Z,0.80
2023-03-14T00:25:17.107Z,0.50
2023-03-14T00:27:46.672Z,0.60
2023-03-14T00:30:15.365Z,0.60
2023-03-14T00:32:44.317Z,0.60
2023-03-14T00:35:12.576Z,0.65
2023-03-14T00:37:40.750Z,0.60
2023-03-14T00:40:10.178Z,0.57
2023-03-14T00:42:38.306Z,0.60
2023-03-14T00:45:09.884Z,0.57
2023-03-14T00:47:38.033Z,0.70
2023-03-14T00:50:07.123Z,0.70
2023-03-14T00:52:35.356Z,0.77
2023-03-14T00:55:03.481Z,0.60
2023-03-14T00:57:31.718Z,0.70
2023-03-14T00:59:59.861Z,0.70
2023-03-14T01:02:30.338Z,0.70
2023-03-14T01:04:58.574Z,1.00
2023-03-14T01:07:26.732Z,0.70
2023-03-14T01:09:54.935Z,0.70
2023-03-14T01:12:23.128Z,0.53
2023-03-14T01:14:51.230Z,0.60
2023-03-14T01:17:19.352Z,0.70
2023-03-14T01:19:48.905Z,0.50
2023-03-14T01:22:17.258Z,0.60
2023-03-14T01:24:45.778Z,0.60
2023-03-14T01:27:14.478Z,0.55
2023-03-14T01:29:42.649Z,0.60
2023-03-14T01:32:11.361Z,0.60
2023-03-14T01:34:39.549Z,0.67
2023-03-14T01:37:09.221Z,0.77
2023-03-14T01:39:39.776Z,0.63
2023-03-14T01:42:08.179Z,0.70
2023-03-14T01:44:54.133Z,0.80
2023-03-14T01:47:23.092Z,0.70
2023-03-14T01:49:55.983Z,0.60
2023-03-14T01:52:29.835Z,0.60
2023-03-14T01:55:02.764Z,0.60
2023-03-14T01:57:34.336Z,0.80
2023-03-14T02:00:12.327Z,0.63
2023-03-14T02:02:46.910Z,0.60
2023-03-14T02:05:20.718Z,0.77
2023-03-14T02:07:58.418Z,0.60
2023-03-14T02:10:34.162Z,0.60
2023-03-14T02:13:05.736Z,0.50
2023-03-14T02:15:48.299Z,0.60
2023-03-14T02:18:36.250Z,0.50
2023-03-14T02:21:32.030Z,0.60
2023-03-14T02:24:11.418Z,0.60
2023-03-14T02:27:02.725Z,0.60
2023-03-14T02:29:33.678Z,2.63
2023-03-14T02:32:03.913Z,4.25
2023-03-14T02:34:33.371Z,0.90
2023-03-14T02:37:03.353Z,4.73
2023-03-14T02:39:37.620Z,1.83
2023-03-14T02:42:06.057Z,0.70
2023-03-14T02:44:36.585Z,0.67
2023-03-14T02:47:06.331Z,0.60
2023-03-14T02:49:35.932Z,0.50
2023-03-14T02:52:06.149Z,0.60
2023-03-14T02:54:34.270Z,0.70
2023-03-14T02:57:04.763Z,0.73
2023-03-14T02:59:32.990Z,0.57
2023-03-14T03:02:09.615Z,0.70
2023-03-14T03:04:37.738Z,0.57
2023-03-14T03:07:05.891Z,0.70
2023-03-14T03:09:34.064Z,0.60
2023-03-14T03:12:02.204Z,0.60
2023-03-14T03:14:31.390Z,0.67
2023-03-14T03:17:02.987Z,0.50
2023-03-14T03:19:32.824Z,0.80
2023-03-14T03:22:00.942Z,1.10
2023-03-14T03:24:29.588Z,0.60
2023-03-14T03:26:57.677Z,0.60
2023-03-14T03:29:27.634Z,0.60
2023-03-14T03:31:56.349Z,0.60
2023-03-14T03:34:24.436Z,0.60
2023-03-14T03:36:58.128Z,0.57
2023-03-14T03:39:27.568Z,0.70
2023-03-14T03:41:55.876Z,0.50
2023-03-14T03:44:24.834Z,0.60
2023-03-14T03:46:53.642Z,0.60
2023-03-14T03:49:21.808Z,0.60
2023-03-14T03:51:50.226Z,0.63
2023-03-14T03:54:19.687Z,0.70
2023-03-14T03:56:47.893Z,0.70
2023-03-14T03:59:16.271Z,0.67
2023-03-14T04:01:48.206Z,0.60
2023-03-14T04:04:16.660Z,0.70
2023-03-14T04:06:45.260Z,0.60
2023-03-14T04:09:14.470Z,0.60
2023-03-14T04:12:01.464Z,0.60
2023-03-14T04:14:38.940Z,0.60
2023-03-14T04:17:13.638Z,0.60
2023-03-14T04:19:41.820Z,0.50
2023-03-14T04:22:10.830Z,0.50
2023-03-14T04:24:47.940Z,0.63
2023-03-14T04:27:17.503Z,0.50
2023-03-14T04:29:47.500Z,0.60
2023-03-14T04:32:18.718Z,0.77
2023-03-14T04:34:46.995Z,0.60
2023-03-14T04:37:15.375Z,0.57
2023-03-14T04:39:45.905Z,0.50
2023-03-14T04:42:20.231Z,0.63
2023-03-14T04:44:50.408Z,0.60
2023-03-14T04:47:19.818Z,0.55
2023-03-14T04:49:53.186Z,0.60
2023-03-14T04:52:21.645Z,0.60
2023-03-14T04:54:49.741Z,0.60
2023-03-14T04:57:20.578Z,0.50
2023-03-14T04:59:49.984Z,0.60
2023-03-14T05:02:40.659Z,0.60
2023-03-14T05:05:17.645Z,0.50
2023-03-14T05:08:14.984Z,0.50
2023-03-14T05:10:54.575Z,0.60
2023-03-14T05:13:40.402Z,0.50
2023-03-14T05:16:27.204Z,1.70
2023-03-14T05:19:23.138Z,0.97
2023-03-14T05:22:12.961Z,0.60
2023-03-14T05:25:00.053Z,0.47
2023-03-14T05:27:46.774Z,0.53
2023-03-14T05:30:31.952Z,0.60
2023-03-14T05:33:23.118Z,0.60
2023-03-14T05:36:11.560Z,0.50
2023-03-14T05:39:00.584Z,0.50
2023-03-14T05:41:54.951Z,0.60
2023-03-14T05:44:33.982Z,0.50
2023-03-14T05:47:22.240Z,0.50
2023-03-14T05:50:02.075Z,0.50
2023-03-14T05:52:38.435Z,0.60
2023-03-14T05:55:27.216Z,1.10
2023-03-14T05:58:25.134Z,0.90
2023-03-14T06:00:59.368Z,2.03
2023-03-14T06:03:43.668Z,1.27
2023-03-14T06:06:12.040Z,0.90
2023-03-14T06:08:40.506Z,0.60
2023-03-14T06:11:11.163Z,0.60
2023-03-14T06:13:39.407Z,0.55
2023-03-14T06:16:08.250Z,1.00
2023-03-14T06:18:36.526Z,0.70
2023-03-14T06:21:08.338Z,0.77
2023-03-14T06:23:37.481Z,0.80
2023-03-14T06:26:07.458Z,0.52
2023-03-14T06:28:35.747Z,0.70
2023-03-14T06:31:06.964Z,0.57
2023-03-14T06:33:42.660Z,0.47
2023-03-14T06:36:13.199Z,0.60
2023-03-14T06:38:44.643Z,0.70
2023-03-14T06:41:12.827Z,0.50
2023-03-14T06:43:44.145Z,0.50
2023-03-14T06:46:13.463Z,0.50
2023-03-14T06:48:43.837Z,0.60
2023-03-14T06:51:14.489Z,0.60
2023-03-14T06:53:42.893Z,0.70
2023-03-14T06:56:11.287Z,0.60
2023-03-14T06:58:39.513Z,0.60
2023-03-14T07:01:22.194Z,1.00
2023-03-14T07:03:50.714Z,1.17
2023-03-14T07:06:20.440Z,1.07
2023-03-14T07:08:50.292Z,0.83
2023-03-14T07:11:20.089Z,0.87
2023-03-14T07:13:48.399Z,0.57
2023-03-14T07:16:16.891Z,0.63
2023-03-14T07:18:45.109Z,0.70
2023-03-14T07:21:14.068Z,0.83
2023-03-14T07:23:43.518Z,0.60
2023-03-14T07:26:11.692Z,0.77
2023-03-14T07:28:45.448Z,0.80
2023-03-14T07:31:18.201Z,0.80
2023-03-14T07:33:46.493Z,0.60
2023-03-14T07:36:14.676Z,0.80
2023-03-14T07:38:46.935Z,0.90
2023-03-14T07:41:15.459Z,0.60
2023-03-14T07:43:51.525Z,0.60
2023-03-14T07:46:19.851Z,0.80
2023-03-14T07:48:47.995Z,0.70
2023-03-14T07:51:16.147Z,0.70
2023-03-14T07:53:45.044Z,0.70
2023-03-14T07:56:14.521Z,1.00
2023-03-14T07:58:42.641Z,0.70
2023-03-14T08:01:11.112Z,0.70
2023-03-14T08:03:39.305Z,0.70
2023-03-14T08:06:08.174Z,0.70
2023-03-14T08:08:36.314Z,0.67
2023-03-14T08:11:05.434Z,1.10
2023-03-14T08:13:35.137Z,0.80
2023-03-14T08:16:03.428Z,2.30
2023-03-14T08:18:31.941Z,1.47
2023-03-14T08:21:00.358Z,0.60
2023-03-14T08:23:28.489Z,1.90
2023-03-14T08:25:56.629Z,0.80
2023-03-14T08:28:24.761Z,0.70
2023-03-14T08:30:56.821Z,0.80
2023-03-14T08:33:25.531Z,0.80
2023-03-14T08:35:54.167Z,0.73
2023-03-14T08:38:22.659Z,0.60
2023-03-14T08:40:51.216Z,0.60
2023-03-14T08:43:19.341Z,0.70
2023-03-14T08:45:47.472Z,0.70
2023-03-14T08:48:17.088Z,0.60
2023-03-14T08:50:45.242Z,0.77
2023-03-14T08:53:13.408Z,0.53
2023-03-14T08:55:41.851Z,0.70
2023-03-14T08:58:10.229Z,0.70
2023-03-14T09:00:38.407Z,0.70
2023-03-14T09:03:06.602Z,0.70
2023-03-14T09:05:36.342Z,0.80
2023-03-14T09:08:04.473Z,0.60
2023-03-14T09:10:32.608Z,0.63
2023-03-14T09:13:01.200Z,0.70
2023-03-14T09:15:29.341Z,0.80
2023-03-14T09:17:57.454Z,0.87
2023-03-14T09:20:25.651Z,0.90
2023-03-14T09:22:55.112Z,0.70
2023-03-14T09:25:23.306Z,0.70
2023-03-14T09:27:51.436Z,0.70
2023-03-14T09:30:19.546Z,0.60
2023-03-14T09:32:47.757Z,0.63
2023-03-14T09:35:16.342Z,0.77
2023-03-14T09:37:44.634Z,0.83
2023-03-14T09:40:17.768Z,0.73
2023-03-14T09:42:46.223Z,0.70
2023-03-14T09:45:19.219Z,0.60
2023-03-14T09:47:58.643Z,1.17
2023-03-14T09:50:32.712Z,0.80
2023-03-14T09:53:05.165Z,0.80
2023-03-14T09:55:36.692Z,0.60
2023-03-14T09:58:11.767Z,0.52
2023-03-14T10:00:40.437Z,0.73
2023-03-14T10:03:23.873Z,0.50
2023-03-14T10:05:52.461Z,0.70
2023-03-14T10:08:20.727Z,1.03
2023-03-14T10:10:50.350Z,0.70
2023-03-14T10:13:22.643Z,0.70
2023-03-14T10:15:54.886Z,0.60
2023-03-14T10:18:26.422Z,0.70
2023-03-14T10:21:05.060Z,0.60
2023-03-14T10:23:35.571Z,1.73
2023-03-14T10:26:15.784Z,0.50
2023-03-14T10:28:46.457Z,0.57
2023-03-14T10:31:15.698Z,0.80
2023-03-14T10:33:43.860Z,0.77
2023-03-14T10:36:22.989Z,0.50
2023-03-14T10:38:51.211Z,0.53
2023-03-14T10:41:26.355Z,0.70
2023-03-14T10:43:58.300Z,0.80
2023-03-14T10:46:28.879Z,0.70
2023-03-14T10:49:29.206Z,0.70
2023-03-14T10:51:57.361Z,0.60
2023-03-14T10:54:25.917Z,0.60
2023-03-14T10:57:02.952Z,0.57
2023-03-14T10:59:37.539Z,0.50
2023-03-14T11:02:21.757Z,0.60
2023-03-14T11:05:05.355Z,0.60
2023-03-14T11:07:40.747Z,0.70
2023-03-14T11:10:21.263Z,0.60
2023-03-14T11:13:07.906Z,0.60
2023-03-14T11:15:41.123Z,0.60
2023-03-14T11:18:29.182Z,0.60
2023-03-14T11:21:04.817Z,0.60
2023-03-14T11:23:40.157Z,0.63
2023-03-14T11:26:22.735Z,0.47
2023-03-14T11:28:59.254Z,0.60
2023-03-14T11:31:29.683Z,0.60
2023-03-14T11:34:03.844Z,0.53
2023-03-14T11:36:38.292Z,0.47
2023-03-14T11:39:13.820Z,0.60
2023-03-14T11:41:45.002Z,0.93
2023-03-14T11:44:20.774Z,0.50
2023-03-14T11:46:53.564Z,0.70
2023-03-14T11:49:32.266Z,0.50
2023-03-14T11:52:05.046Z,1.80
2023-03-14T11:54:40.149Z,0.70
2023-03-14T11:57:13.966Z,0.63
2023-03-14T11:59:51.891Z,0.70
2023-03-14T12:02:26.727Z,0.77
2023-03-14T12:05:18.658Z,0.50
2023-03-14T12:08:05.145Z,0.50
2023-03-14T12:10:40.143Z,1.60
2023-03-14T12:13:11.457Z,0.85
2023-03-14T12:15:44.689Z,0.47
2023-03-14T12:18:22.006Z,0.67
2023-03-14T12:20:55.585Z,0.80
2023-03-14T12:23:24.090Z,0.60
2023-03-14T12:26:09.761Z,0.50
2023-03-14T12:28:37.958Z,0.67
2023-03-14T12:31:43.590Z,0.70
2023-03-14T12:34:30.471Z,0.70
2023-03-14T12:37:07.792Z,0.50
2023-03-14T12:39:45.047Z,0.60
2023-03-14T12:42:14.981Z,0.50
2023-03-14T12:44:46.487Z,0.60
2023-03-14T12:47:54.610Z,0.60
2023-03-14T12:50:27.949Z,0.60
2023-03-14T12:53:12.156Z,0.60
2023-03-14T12:55:51.002Z,0.70
2023-03-14T12:58:30.791Z,0.43
2023-03-14T13:01:02.882Z,0.50
2023-03-14T13:03:44.856Z,0.50
2023-03-14T13:06:13.655Z,0.60
2023-03-14T13:08:44.377Z,0.50
2023-03-14T13:11:16.939Z,0.90
2023-03-14T13:13:49.627Z,0.40
2023-03-14T13:16:20.470Z,0.50
2023-03-14T13:18:52.556Z,0.60
2023-03-14T13:21:22.626Z,0.50
2023-03-14T13:23:59.714Z,0.50
2023-03-14T13:26:37.541Z,0.50
2023-03-14T13:29:18.189Z,0.40
2023-03-14T13:31:47.518Z,0.50
2023-03-14T13:34:17.351Z,0.60
2023-03-14T13:36:46.111Z,0.50
2023-03-14T13:39:20.290Z,0.50
2023-03-14T13:41:49.473Z,0.60
2023-03-14T13:44:20.398Z,0.70
2023-03-14T13:46:48.553Z,0.60
2023-03-14T13:49:25.676Z,0.40
2023-03-14T13:51:53.911Z,0.75
2023-03-14T13:54:24.093Z,0.40
2023-03-14T13:57:01.503Z,0.40
2023-03-14T13:59:31.388Z,0.52
2023-03-14T14:02:01.582Z,0.50
2023-03-14T14:04:34.471Z,0.40
2023-03-14T14:07:08.243Z,0.40
2023-03-14T14:09:40.377Z,0.50
2023-03-14T14:12:16.963Z,0.40
2023-03-14T14:14:49.352Z,0.40
2023-03-14T14:17:20.681Z,0.50
2023-03-14T14:19:50.998Z,0.73
2023-03-14T14:22:20.069Z,0.40
2023-03-14T14:24:48.751Z,0.47
2023-03-14T14:27:19.899Z,0.50
2023-03-14T14:29:59.672Z,0.40
2023-03-14T14:32:27.962Z,0.50
2023-03-14T14:35:04.219Z,0.50
2023-03-14T14:37:34.638Z,0.70
2023-03-14T14:40:11.784Z,0.50
2023-03-14T14:42:42.935Z,0.40
2023-03-14T14:45:16.672Z,0.50
2023-03-14T14:47:52.843Z,0.70
2023-03-14T14:50:33.470Z,0.40
2023-03-14T14:53:03.356Z,0.60
2023-03-14T14:55:34.819Z,1.00
2023-03-14T14:58:14.416Z,0.40
2023-03-14T15:00:43.516Z,0.40
2023-03-14T15:03:15.565Z,0.50
2023-03-14T15:05:45.366Z,0.50
2023-03-14T15:08:13.540Z,0.40
2023-03-14T15:10:41.926Z,0.50
2023-03-14T15:13:13.205Z,0.50
2023-03-14T15:15:43.254Z,0.40
2023-03-14T15:18:16.534Z,0.50
2023-03-14T15:20:46.476Z,0.40
2023-03-14T15:23:16.417Z,0.40
2023-03-14T15:25:55.463Z,0.70
2023-03-14T15:28:27.233Z,0.50
2023-03-14T15:30:57.433Z,0.60
2023-03-14T15:33:26.763Z,0.50
2023-03-14T15:35:58.033Z,0.40
2023-03-14T15:38:26.350Z,0.30
2023-03-14T15:40:55.472Z,0.50
2023-03-14T15:43:23.685Z,0.50
2023-03-14T15:45:52.234Z,0.40
2023-03-14T15:48:23.019Z,0.87
2023-03-14T15:50:51.303Z,0.43
2023-03-14T15:53:20.970Z,0.50
2023-03-14T15:55:49.117Z,0.50
2023-03-14T15:58:21.572Z,0.50
2023-03-14T16:00:50.617Z,0.70
2023-03-14T16:03:18.900Z,0.80
2023-03-14T16:05:47.041Z,0.47
2023-03-14T16:08:15.168Z,0.53
2023-03-14T16:10:45.133Z,0.33
2023-03-14T16:13:14.091Z,0.40
2023-03-14T16:15:42.292Z,1.07
2023-03-14T16:18:21.012Z,0.40
2023-03-14T16:20:57.587Z,0.30
2023-03-14T16:23:26.373Z,0.33
2023-03-14T16:25:56.549Z,0.30
2023-03-14T16:28:25.237Z,0.30
2023-03-14T16:30:53.532Z,0.30
2023-03-14T16:33:24.497Z,0.40
2023-03-14T16:35:57.179Z,0.40
2023-03-14T16:38:25.871Z,0.80
2023-03-14T16:41:00.424Z,0.50
2023-03-14T16:43:29.133Z,0.60
2023-03-14T16:45:59.630Z,0.30
2023-03-14T16:48:28.533Z,0.30
2023-03-14T16:50:57.316Z,0.40
2023-03-14T16:53:28.782Z,0.40
2023-03-14T16:55:59.473Z,0.40
2023-03-14T16:58:28.284Z,0.50
2023-03-14T17:00:57.765Z,0.40
2023-03-14T17:03:27.785Z,0.40
2023-03-14T17:05:56.150Z,0.40
2023-03-14T17:08:24.299Z,0.40
2023-03-14T17:10:52.768Z,0.40
2023-03-14T17:13:25.690Z,0.33
2023-03-14T17:15:55.588Z,0.40
2023-03-14T17:18:24.293Z,0.40
2023-03-14T17:20:52.805Z,0.40
2023-03-14T17:23:21.474Z,0.30
2023-03-14T17:25:51.231Z,0.37
2023-03-14T17:28:20.216Z,0.40
2023-03-14T17:30:50.242Z,0.30
2023-03-14T17:33:18.500Z,0.30
2023-03-14T17:35:46.757Z,0.40
2023-03-14T17:38:14.904Z,0.40
2023-03-14T17:40:47.613Z,0.40
2023-03-14T17:43:16.404Z,0.60
2023-03-14T17:45:44.732Z,0.40
2023-03-14T17:48:14.215Z,0.40
2023-03-14T17:50:42.430Z,2.20
2023-03-14T17:53:10.564Z,0.50
2023-03-14T17:55:38.703Z,0.43
2023-03-14T17:58:06.811Z,0.70
2023-03-14T18:00:34.944Z,0.50
2023-03-14T18:03:03.316Z,0.50
2023-03-14T18:05:32.850Z,0.70
2023-03-14T18:08:00.981Z,0.60
2023-03-14T18:10:29.139Z,0.47
2023-03-14T18:12:57.295Z,0.60
2023-03-14T18:15:25.463Z,0.60
2023-03-14T18:17:53.614Z,0.60
2023-03-14T18:20:21.964Z,0.82
2023-03-14T18:22:51.406Z,0.60
2023-03-14T18:25:19.698Z,0.80
2023-03-14T18:27:47.874Z,1.07
2023-03-14T18:30:17.057Z,0.70
2023-03-14T18:32:45.200Z,1.47
2023-03-14T18:35:13.408Z,0.60
2023-03-14T18:37:41.846Z,0.87
2023-03-14T18:40:16.933Z,0.70
2023-03-14T18:42:45.129Z,0.70
2023-03-14T18:45:14.373Z,1.53
2023-03-14T18:47:42.594Z,1.20
2023-03-14T18:50:12.205Z,1.73
2023-03-14T18:52:40.835Z,1.17
2023-03-14T18:55:11.235Z,1.40
2023-03-14T18:57:39.484Z,1.40
2023-03-14T19:00:10.923Z,1.80
2023-03-14T19:02:39.497Z,1.20
2023-03-14T19:05:09.248Z,1.30
2023-03-14T19:07:37.399Z,2.00
2023-03-14T19:10:06.292Z,1.30
2023-03-14T19:12:35.791Z,1.75
2023-03-14T19:15:04.043Z,3.13
2023-03-14T19:17:32.241Z,2.15
2023-03-14T19:20:00.387Z,1.80
2023-03-14T19:22:28.516Z,1.70
2023-03-14T19:24:57.165Z,2.83
2023-03-14T19:27:25.336Z,2.27
2023-03-14T19:29:54.878Z,2.85
2023-03-14T19:32:23.120Z,2.50
2023-03-14T19:34:51.275Z,2.80
2023-03-14T19:37:19.431Z,2.37
2023-03-14T19:39:48.016Z,1.83
2023-03-14T19:42:16.166Z,2.63
2023-03-14T19:44:44.331Z,1.90
2023-03-14T19:47:14.206Z,2.43
2023-03-14T19:49:42.416Z,2.10
2023-03-14T19:52:10.876Z,2.83
2023-03-14T19:54:41.187Z,2.63
2023-03-14T19:57:09.648Z,3.60
2023-03-14T19:59:37.953Z,2.50
2023-03-14T20:02:06.302Z,2.80
2023-03-14T20:04:36.069Z,2.73
2023-03-14T20:07:04.828Z,2.47
2023-03-14T20:09:33.135Z,1.80
2023-03-14T20:12:01.582Z,1.87
2023-03-14T20:14:29.719Z,1.90
2023-03-14T20:16:58.231Z,1.85
2023-03-14T20:19:26.711Z,2.10
2023-03-14T20:21:56.279Z,1.73
2023-03-14T20:24:24.426Z,2.27
2023-03-14T20:26:52.580Z,1.83
2023-03-14T20:29:20.741Z,2.40
2023-03-14T20:31:48.860Z,1.73
2023-03-14T20:34:16.992Z,2.33
2023-03-14T20:36:45.124Z,1.67
2023-03-14T20:39:15.337Z,1.83
2023-03-14T20:41:43.469Z,1.57
2023-03-14T20:44:13.389Z,1.73
2023-03-14T20:46:41.744Z,2.00
2023-03-14T20:49:10.331Z,2.30
2023-03-14T20:51:38.613Z,1.20
2023-03-14T20:54:08.892Z,1.70
2023-03-14T20:56:40.633Z,2.33
2023-03-14T20:59:08.791Z,2.10
2023-03-14T21:01:37.578Z,2.17
2023-03-14T21:04:06.457Z,1.40
2023-03-14T21:06:34.657Z,2.13
2023-03-14T21:09:05.522Z,1.17
2023-03-14T21:11:36.352Z,1.40
2023-03-14T21:14:06.100Z,4.57
2023-03-14T21:16:34.391Z,2.17
2023-03-14T21:19:02.636Z,1.83
2023-03-14T21:21:30.871Z,1.50
2023-03-14T21:23:59.126Z,1.57
2023-03-14T21:26:27.339Z,1.40
2023-03-14T21:28:55.502Z,1.17
2023-03-14T21:31:26.895Z,2.20
2023-03-14T21:33:56.147Z,1.20
2023-03-14T21:36:24.455Z,2.70
2023-03-14T21:38:52.963Z,1.53
2023-03-14T21:41:21.108Z,1.20
2023-03-14T21:43:49.224Z,1.53
2023-03-14T21:46:17.455Z,1.35
2023-03-14T21:48:47.561Z,1.40
2023-03-14T21:51:15.951Z,2.40
2023-03-14T21:53:45.680Z,1.20
2023-03-14T21:56:14.378Z,1.23
2023-03-14T21:58:42.567Z,3.97
2023-03-14T22:01:11.713Z,0.93
2023-03-14T22:03:39.861Z,1.20
2023-03-14T22:06:09.493Z,1.00
2023-03-14T22:08:37.659Z,1.00
2023-03-14T22:11:07.875Z,1.20
2023-03-14T22:13:36.019Z,2.60
2023-03-14T22:16:04.295Z,1.55
2023-03-14T22:18:32.838Z,1.10
2023-03-14T22:21:01.085Z,1.23
2023-03-14T22:23:30.545Z,1.07
2023-03-14T22:25:58.687Z,1.47
2023-03-14T22:28:26.890Z,1.40
2023-03-14T22:30:54.994Z,1.00
2023-03-14T22:33:23.280Z,1.00
2023-03-14T22:35:53.301Z,0.87
2023-03-14T22:38:21.826Z,0.80
2023-03-14T22:40:51.281Z,1.10
2023-03-14T22:43:19.619Z,1.20
2023-03-14T22:45:48.163Z,1.10
2023-03-14T22:48:16.317Z,1.23
2023-03-14T22:50:44.463Z,1.10
2023-03-14T22:53:12.802Z,1.07
2023-03-14T22:55:41.344Z,0.90
2023-03-14T22:58:11.339Z,1.30
2023-03-14T23:00:39.897Z,1.87
2023-03-14T23:03:08.184Z,0.90
2023-03-14T23:05:36.352Z,1.30
2023-03-14T23:08:04.500Z,1.37
2023-03-14T23:10:32.996Z,1.20
2023-03-14T23:13:01.319Z,1.42
2023-03-14T23:15:30.857Z,1.40
2023-03-14T23:17:59.167Z,1.33
2023-03-14T23:20:27.966Z,1.03
2023-03-14T23:22:56.110Z,1.00
2023-03-14T23:25:24.285Z,1.42
2023-03-14T23:27:54.208Z,1.30
2023-03-14T23:30:22.531Z,1.10
2023-03-14T23:32:53.196Z,1.60
2023-03-14T23:35:21.581Z,0.97
2023-03-14T23:37:50.160Z,1.50
2023-03-14T23:40:18.936Z,1.43
2023-03-14T23:42:49.667Z,0.90
2023-03-14T23:45:17.932Z,1.60
2023-03-14T23:47:46.068Z,0.67
2023-03-14T23:50:15.644Z,1.00
2023-03-14T23:52:43.919Z,1.00
2023-03-14T23:55:12.229Z,1.30
2023-03-14T23:57:40.501Z,0.90
